sensor_id;sensor_type;location;lat;lon;timestamp;P1;durP1;ratioP1;P2;durP2;ratioP2
33836;SDS011;20140;49.356;8.812;2022-08-02T00:01:29;1.77;;;1.67;;
33836;SDS011;20140;49.356;8.812;2022-08-02T00:03:55;5.17;;;2.80;;
33836;SDS011;20140;49.356;8.812;2022-08-02T00:06:20;2.05;;;1.88;;
33836;SDS011;20140;49.356;8.812;2022-08-02T00:08:46;2.67;;;2.00;;
33836;SDS011;20140;49.356;8.812;2022-08-02T00:11:11;5.43;;;2.38;;
33836;SDS011;20140;49.356;8.812;2022-08-02T00:13:37;3.43;;;2.07;;
33836;SDS011;20140;49.356;8.812;2022-08-02T00:16:02;4.43;;;2.43;;
33836;SDS011;20140;49.356;8.812;2022-08-02T00:18:28;2.22;;;2.03;;
33836;SDS011;20140;49.356;8.812;2022-08-02T00:20:54;4.57;;;1.92;;
33836;SDS011;20140;49.356;8.812;2022-08-02T00:23:19;2.33;;;2.13;;
33836;SDS011;20140;49.356;8.812;2022-08-02T00:25:45;2.40;;;2.20;;
33836;SDS011;20140;49.356;8.812;2022-08-02T00:28:11;3.07;;;2.77;;
33836;SDS011;20140;49.356;8.812;2022-08-02T00:30:37;3.50;;;1.93;;
33836;SDS011;20140;49.356;8.812;2022-08-02T00:33:03;3.95;;;3.33;;
33836;SDS011;20140;49.356;8.812;2022-08-02T00:35:29;2.60;;;2.40;;
33836;SDS011;20140;49.356;8.812;2022-08-02T00:37:56;2.67;;;2.25;;
33836;SDS011;20140;49.356;8.812;2022-08-02T00:40:22;3.30;;;2.35;;
33836;SDS011;20140;49.356;8.812;2022-08-02T00:43:05;2.55;;;2.25;;
33836;SDS011;20140;49.356;8.812;2022-08-02T00:45:35;2.60;;;2.40;;
33836;SDS011;20140;49.356;8.812;2022-08-02T00:48:03;2.40;;;2.20;;
33836;SDS011;20140;49.356;8.812;2022-08-02T00:50:30;3.17;;;2.45;;
33836;SDS011;20140;49.356;8.812;2022-08-02T00:52:56;3.78;;;2.30;;
33836;SDS011;20140;49.356;8.812;2022-08-02T00:55:22;3.13;;;2.47;;
33836;SDS011;20140;49.356;8.812;2022-08-02T00:57:48;2.75;;;2.30;;
33836;SDS011;20140;49.356;8.812;2022-08-02T01:00:13;3.40;;;2.60;;
33836;SDS011;20140;49.356;8.812;2022-08-02T01:02:39;4.70;;;2.83;;
33836;SDS011;20140;49.356;8.812;2022-08-02T01:05:05;4.07;;;2.57;;
33836;SDS011;20140;49.356;8.812;2022-08-02T01:07:31;2.47;;;2.22;;
33836;SDS011;20140;49.356;8.812;2022-08-02T01:09:57;2.72;;;2.45;;
33836;SDS011;20140;49.356;8.812;2022-08-02T01:12:24;2.97;;;2.65;;
33836;SDS011;20140;49.356;8.812;2022-08-02T01:14:50;4.27;;;2.43;;
33836;SDS011;20140;49.356;8.812;2022-08-02T01:17:19;4.45;;;2.58;;
33836;SDS011;20140;49.356;8.812;2022-08-02T01:25:03;3.00;;;2.70;;
33836;SDS011;20140;49.356;8.812;2022-08-02T01:30:24;3.00;;;2.70;;
33836;SDS011;20140;49.356;8.812;2022-08-02T01:32:53;3.20;;;2.90;;
33836;SDS011;20140;49.356;8.812;2022-08-02T01:35:23;3.08;;;2.78;;
33836;SDS011;20140;49.356;8.812;2022-08-02T01:37:58;3.55;;;2.92;;
33836;SDS011;20140;49.356;8.812;2022-08-02T01:40:39;3.08;;;2.78;;
33836;SDS011;20140;49.356;8.812;2022-08-02T01:43:08;3.97;;;3.00;;
33836;SDS011;20140;49.356;8.812;2022-08-02T01:45:35;3.33;;;2.67;;
33836;SDS011;20140;49.356;8.812;2022-08-02T01:48:03;5.18;;;2.70;;
33836;SDS011;20140;49.356;8.812;2022-08-02T01:50:32;3.95;;;2.97;;
33836;SDS011;20140;49.356;8.812;2022-08-02T01:53:02;3.47;;;3.17;;
33836;SDS011;20140;49.356;8.812;2022-08-02T01:55:32;3.30;;;3.00;;
33836;SDS011;20140;49.356;8.812;2022-08-02T01:58:04;2.90;;;2.60;;
33836;SDS011;20140;49.356;8.812;2022-08-02T02:00:32;3.50;;;3.10;;
33836;SDS011;20140;49.356;8.812;2022-08-02T02:03:04;3.00;;;2.70;;
33836;SDS011;20140;49.356;8.812;2022-08-02T02:05:31;3.72;;;2.97;;
33836;SDS011;20140;49.356;8.812;2022-08-02T02:07:59;3.35;;;3.03;;
33836;SDS011;20140;49.356;8.812;2022-08-02T02:10:29;3.40;;;2.80;;
33836;SDS011;20140;49.356;8.812;2022-08-02T02:12:57;3.10;;;2.80;;
33836;SDS011;20140;49.356;8.812;2022-08-02T02:15:27;3.80;;;3.10;;
33836;SDS011;20140;49.356;8.812;2022-08-02T02:17:55;4.07;;;3.08;;
33836;SDS011;20140;49.356;8.812;2022-08-02T02:20:21;3.35;;;3.05;;
33836;SDS011;20140;49.356;8.812;2022-08-02T02:22:48;3.73;;;3.43;;
33836;SDS011;20140;49.356;8.812;2022-08-02T02:25:14;4.15;;;3.08;;
33836;SDS011;20140;49.356;8.812;2022-08-02T02:28:02;4.17;;;3.70;;
33836;SDS011;20140;49.356;8.812;2022-08-02T02:30:31;4.82;;;3.30;;
33836;SDS011;20140;49.356;8.812;2022-08-02T02:33:00;3.55;;;3.25;;
33836;SDS011;20140;49.356;8.812;2022-08-02T02:35:28;5.38;;;3.50;;
33836;SDS011;20140;49.356;8.812;2022-08-02T02:37:55;5.25;;;3.72;;
33836;SDS011;20140;49.356;8.812;2022-08-02T02:40:24;4.25;;;3.78;;
33836;SDS011;20140;49.356;8.812;2022-08-02T02:42:52;4.28;;;3.22;;
33836;SDS011;20140;49.356;8.812;2022-08-02T02:45:20;3.92;;;3.47;;
33836;SDS011;20140;49.356;8.812;2022-08-02T02:47:46;4.03;;;3.33;;
33836;SDS011;20140;49.356;8.812;2022-08-02T02:50:14;3.42;;;3.13;;
33836;SDS011;20140;49.356;8.812;2022-08-02T02:52:41;3.53;;;3.22;;
33836;SDS011;20140;49.356;8.812;2022-08-02T02:55:08;3.70;;;3.40;;
33836;SDS011;20140;49.356;8.812;2022-08-02T02:57:35;5.00;;;3.90;;
33836;SDS011;20140;49.356;8.812;2022-08-02T03:00:02;4.18;;;3.78;;
33836;SDS011;20140;49.356;8.812;2022-08-02T03:02:39;4.55;;;4.15;;
33836;SDS011;20140;49.356;8.812;2022-08-02T03:05:06;5.10;;;4.03;;
33836;SDS011;20140;49.356;8.812;2022-08-02T03:07:33;3.72;;;3.42;;
33836;SDS011;20140;49.356;8.812;2022-08-02T03:10:00;3.80;;;3.40;;
33836;SDS011;20140;49.356;8.812;2022-08-02T03:12:28;4.13;;;3.70;;
33836;SDS011;20140;49.356;8.812;2022-08-02T03:14:54;4.20;;;3.80;;
33836;SDS011;20140;49.356;8.812;2022-08-02T03:17:35;4.40;;;4.00;;
33836;SDS011;20140;49.356;8.812;2022-08-02T03:20:03;3.70;;;3.40;;
33836;SDS011;20140;49.356;8.812;2022-08-02T03:22:32;4.18;;;3.65;;
33836;SDS011;20140;49.356;8.812;2022-08-02T03:24:58;5.07;;;3.97;;
33836;SDS011;20140;49.356;8.812;2022-08-02T03:27:23;4.20;;;3.80;;
33836;SDS011;20140;49.356;8.812;2022-08-02T03:29:49;4.13;;;3.73;;
33836;SDS011;20140;49.356;8.812;2022-08-02T03:32:14;4.10;;;3.70;;
33836;SDS011;20140;49.356;8.812;2022-08-02T03:34:40;4.90;;;4.20;;
33836;SDS011;20140;49.356;8.812;2022-08-02T03:37:05;5.00;;;4.05;;
33836;SDS011;20140;49.356;8.812;2022-08-02T03:39:31;5.78;;;4.13;;
33836;SDS011;20140;49.356;8.812;2022-08-02T03:41:58;5.03;;;4.53;;
33836;SDS011;20140;49.356;8.812;2022-08-02T03:44:25;5.95;;;4.68;;
33836;SDS011;20140;49.356;8.812;2022-08-02T03:46:51;4.13;;;3.70;;
33836;SDS011;20140;49.356;8.812;2022-08-02T03:49:17;4.93;;;4.43;;
33836;SDS011;20140;49.356;8.812;2022-08-02T03:51:44;4.63;;;4.23;;
33836;SDS011;20140;49.356;8.812;2022-08-02T03:54:11;4.78;;;4.22;;
33836;SDS011;20140;49.356;8.812;2022-08-02T03:56:37;4.97;;;4.28;;
33836;SDS011;20140;49.356;8.812;2022-08-02T03:59:13;4.85;;;4.35;;
33836;SDS011;20140;49.356;8.812;2022-08-02T04:01:39;6.90;;;4.15;;
33836;SDS011;20140;49.356;8.812;2022-08-02T04:04:06;5.10;;;4.65;;
33836;SDS011;20140;49.356;8.812;2022-08-02T04:06:32;5.17;;;4.23;;
33836;SDS011;20140;49.356;8.812;2022-08-02T04:08:57;5.00;;;4.50;;
33836;SDS011;20140;49.356;8.812;2022-08-02T04:11:23;4.93;;;4.53;;
33836;SDS011;20140;49.356;8.812;2022-08-02T04:13:55;5.35;;;4.85;;
33836;SDS011;20140;49.356;8.812;2022-08-02T04:16:31;5.78;;;5.25;;
33836;SDS011;20140;49.356;8.812;2022-08-02T04:18:59;5.85;;;5.05;;
33836;SDS011;20140;49.356;8.812;2022-08-02T04:21:27;5.93;;;5.32;;
33836;SDS011;20140;49.356;8.812;2022-08-02T04:23:59;5.10;;;4.60;;
33836;SDS011;20140;49.356;8.812;2022-08-02T04:26:26;5.38;;;4.88;;
33836;SDS011;20140;49.356;8.812;2022-08-02T04:28:53;9.65;;;5.32;;
33836;SDS011;20140;49.356;8.812;2022-08-02T04:31:19;6.25;;;4.88;;
33836;SDS011;20140;49.356;8.812;2022-08-02T04:33:45;4.68;;;4.18;;
33836;SDS011;20140;49.356;8.812;2022-08-02T04:36:11;5.17;;;4.67;;
33836;SDS011;20140;49.356;8.812;2022-08-02T04:38:38;4.80;;;4.35;;
33836;SDS011;20140;49.356;8.812;2022-08-02T04:41:05;5.07;;;4.60;;
33836;SDS011;20140;49.356;8.812;2022-08-02T04:43:30;7.93;;;5.20;;
33836;SDS011;20140;49.356;8.812;2022-08-02T04:45:56;4.97;;;4.47;;
33836;SDS011;20140;49.356;8.812;2022-08-02T04:48:21;5.37;;;4.87;;
33836;SDS011;20140;49.356;8.812;2022-08-02T04:50:48;5.25;;;4.78;;
33836;SDS011;20140;49.356;8.812;2022-08-02T04:53:14;6.00;;;4.38;;
33836;SDS011;20140;49.356;8.812;2022-08-02T04:55:39;7.15;;;4.68;;
33836;SDS011;20140;49.356;8.812;2022-08-02T04:58:05;5.53;;;4.37;;
33836;SDS011;20140;49.356;8.812;2022-08-02T05:00:31;6.45;;;5.32;;
33836;SDS011;20140;49.356;8.812;2022-08-02T05:02:57;4.40;;;4.00;;
33836;SDS011;20140;49.356;8.812;2022-08-02T05:05:23;4.72;;;4.15;;
33836;SDS011;20140;49.356;8.812;2022-08-02T05:07:48;5.45;;;4.70;;
33836;SDS011;20140;49.356;8.812;2022-08-02T05:10:14;5.88;;;4.88;;
33836;SDS011;20140;49.356;8.812;2022-08-02T05:12:40;6.10;;;4.70;;
33836;SDS011;20140;49.356;8.812;2022-08-02T05:15:06;5.30;;;4.80;;
33836;SDS011;20140;49.356;8.812;2022-08-02T05:17:33;5.50;;;5.00;;
33836;SDS011;20140;49.356;8.812;2022-08-02T05:19:58;6.25;;;5.65;;
33836;SDS011;20140;49.356;8.812;2022-08-02T05:22:24;5.35;;;4.85;;
33836;SDS011;20140;49.356;8.812;2022-08-02T05:24:49;6.10;;;5.50;;
33836;SDS011;20140;49.356;8.812;2022-08-02T05:27:15;6.68;;;4.88;;
33836;SDS011;20140;49.356;8.812;2022-08-02T05:29:40;5.00;;;4.03;;
33836;SDS011;20140;49.356;8.812;2022-08-02T05:32:06;5.43;;;4.93;;
33836;SDS011;20140;49.356;8.812;2022-08-02T05:34:32;5.32;;;4.82;;
33836;SDS011;20140;49.356;8.812;2022-08-02T05:36:57;5.40;;;4.80;;
33836;SDS011;20140;49.356;8.812;2022-08-02T05:39:23;6.47;;;4.40;;
33836;SDS011;20140;49.356;8.812;2022-08-02T05:41:48;5.28;;;4.53;;
33836;SDS011;20140;49.356;8.812;2022-08-02T05:44:14;5.77;;;5.20;;
33836;SDS011;20140;49.356;8.812;2022-08-02T05:46:39;5.85;;;5.30;;
33836;SDS011;20140;49.356;8.812;2022-08-02T05:49:05;6.07;;;5.53;;
33836;SDS011;20140;49.356;8.812;2022-08-02T05:51:35;6.88;;;5.05;;
33836;SDS011;20140;49.356;8.812;2022-08-02T05:57:00;6.20;;;5.28;;
33836;SDS011;20140;49.356;8.812;2022-08-02T05:59:31;7.10;;;4.40;;
33836;SDS011;20140;49.356;8.812;2022-08-02T06:02:08;4.88;;;4.45;;
33836;SDS011;20140;49.356;8.812;2022-08-02T06:04:51;5.03;;;4.60;;
33836;SDS011;20140;49.356;8.812;2022-08-02T06:07:25;6.30;;;5.68;;
33836;SDS011;20140;49.356;8.812;2022-08-02T06:09:50;5.93;;;5.32;;
33836;SDS011;20140;49.356;8.812;2022-08-02T06:12:16;5.95;;;5.35;;
33836;SDS011;20140;49.356;8.812;2022-08-02T06:14:43;5.87;;;5.27;;
33836;SDS011;20140;49.356;8.812;2022-08-02T06:17:10;7.40;;;5.82;;
33836;SDS011;20140;49.356;8.812;2022-08-02T06:19:37;6.38;;;5.03;;
33836;SDS011;20140;49.356;8.812;2022-08-02T06:22:05;5.97;;;5.27;;
33836;SDS011;20140;49.356;8.812;2022-08-02T06:24:44;5.87;;;5.27;;
33836;SDS011;20140;49.356;8.812;2022-08-02T06:27:13;5.90;;;5.30;;
33836;SDS011;20140;49.356;8.812;2022-08-02T06:29:39;5.68;;;5.18;;
33836;SDS011;20140;49.356;8.812;2022-08-02T06:32:07;5.22;;;4.82;;
33836;SDS011;20140;49.356;8.812;2022-08-02T06:34:39;5.80;;;5.20;;
33836;SDS011;20140;49.356;8.812;2022-08-02T06:37:11;5.95;;;5.40;;
33836;SDS011;20140;49.356;8.812;2022-08-02T06:39:43;6.32;;;5.53;;
33836;SDS011;20140;49.356;8.812;2022-08-02T06:42:12;5.22;;;4.72;;
33836;SDS011;20140;49.356;8.812;2022-08-02T06:44:39;5.70;;;5.03;;
33836;SDS011;20140;49.356;8.812;2022-08-02T06:47:05;5.22;;;4.72;;
33836;SDS011;20140;49.356;8.812;2022-08-02T06:49:31;6.57;;;4.70;;
33836;SDS011;20140;49.356;8.812;2022-08-02T06:51:56;5.50;;;4.60;;
33836;SDS011;20140;49.356;8.812;2022-08-02T06:54:22;5.13;;;4.03;;
33836;SDS011;20140;49.356;8.812;2022-08-02T06:56:47;3.97;;;3.67;;
33836;SDS011;20140;49.356;8.812;2022-08-02T06:59:13;4.45;;;4.05;;
33836;SDS011;20140;49.356;8.812;2022-08-02T07:01:39;6.13;;;3.80;;
33836;SDS011;20140;49.356;8.812;2022-08-02T07:04:04;4.32;;;3.92;;
33836;SDS011;20140;49.356;8.812;2022-08-02T07:06:30;4.07;;;3.70;;
33836;SDS011;20140;49.356;8.812;2022-08-02T07:08:55;4.07;;;3.67;;
33836;SDS011;20140;49.356;8.812;2022-08-02T07:11:21;4.35;;;3.65;;
33836;SDS011;20140;49.356;8.812;2022-08-02T07:13:48;3.85;;;3.55;;
33836;SDS011;20140;49.356;8.812;2022-08-02T07:16:13;5.50;;;3.20;;
33836;SDS011;20140;49.356;8.812;2022-08-02T07:18:39;3.85;;;3.55;;
33836;SDS011;20140;49.356;8.812;2022-08-02T07:21:05;3.57;;;3.07;;
33836;SDS011;20140;49.356;8.812;2022-08-02T07:23:31;3.45;;;3.15;;
33836;SDS011;20140;49.356;8.812;2022-08-02T07:25:57;3.00;;;2.70;;
33836;SDS011;20140;49.356;8.812;2022-08-02T07:28:23;3.35;;;3.05;;
33836;SDS011;20140;49.356;8.812;2022-08-02T07:30:48;3.35;;;3.05;;
33836;SDS011;20140;49.356;8.812;2022-08-02T07:33:14;5.33;;;3.03;;
33836;SDS011;20140;49.356;8.812;2022-08-02T07:35:40;5.30;;;2.77;;
33836;SDS011;20140;49.356;8.812;2022-08-02T07:38:05;3.33;;;3.03;;
33836;SDS011;20140;49.356;8.812;2022-08-02T07:40:31;3.28;;;3.00;;
33836;SDS011;20140;49.356;8.812;2022-08-02T07:42:57;5.60;;;3.00;;
33836;SDS011;20140;49.356;8.812;2022-08-02T07:45:23;2.70;;;2.50;;
33836;SDS011;20140;49.356;8.812;2022-08-02T07:47:49;5.78;;;2.88;;
33836;SDS011;20140;49.356;8.812;2022-08-02T07:50:16;3.08;;;2.78;;
33836;SDS011;20140;49.356;8.812;2022-08-02T07:52:42;3.57;;;3.10;;
33836;SDS011;20140;49.356;8.812;2022-08-02T07:55:09;3.25;;;2.90;;
33836;SDS011;20140;49.356;8.812;2022-08-02T07:57:36;3.05;;;2.78;;
33836;SDS011;20140;49.356;8.812;2022-08-02T08:00:03;4.85;;;3.05;;
33836;SDS011;20140;49.356;8.812;2022-08-02T08:02:30;3.42;;;3.15;;
33836;SDS011;20140;49.356;8.812;2022-08-02T08:04:55;3.65;;;3.35;;
33836;SDS011;20140;49.356;8.812;2022-08-02T08:07:22;3.78;;;3.42;;
33836;SDS011;20140;49.356;8.812;2022-08-02T08:09:48;3.58;;;3.28;;
33836;SDS011;20140;49.356;8.812;2022-08-02T08:12:14;4.80;;;3.90;;
33836;SDS011;20140;49.356;8.812;2022-08-02T08:14:40;3.80;;;2.43;;
33836;SDS011;20140;49.356;8.812;2022-08-02T08:17:06;2.35;;;2.15;;
33836;SDS011;20140;49.356;8.812;2022-08-02T08:19:32;3.05;;;2.75;;
33836;SDS011;20140;49.356;8.812;2022-08-02T08:21:58;3.17;;;2.97;;
33836;SDS011;20140;49.356;8.812;2022-08-02T08:24:27;3.45;;;3.00;;
33836;SDS011;20140;49.356;8.812;2022-08-02T08:26:53;3.28;;;2.75;;
33836;SDS011;20140;49.356;8.812;2022-08-02T08:29:19;2.90;;;2.70;;
33836;SDS011;20140;49.356;8.812;2022-08-02T08:31:45;3.90;;;3.15;;
33836;SDS011;20140;49.356;8.812;2022-08-02T08:34:11;2.60;;;2.33;;
33836;SDS011;20140;49.356;8.812;2022-08-02T08:36:37;2.58;;;2.38;;
33836;SDS011;20140;49.356;8.812;2022-08-02T08:39:03;3.30;;;3.00;;
33836;SDS011;20140;49.356;8.812;2022-08-02T08:41:29;2.97;;;2.77;;
33836;SDS011;20140;49.356;8.812;2022-08-02T08:43:54;3.25;;;2.95;;
33836;SDS011;20140;49.356;8.812;2022-08-02T08:46:25;3.80;;;2.50;;
33836;SDS011;20140;49.356;8.812;2022-08-02T08:49:39;3.08;;;2.88;;
33836;SDS011;20140;49.356;8.812;2022-08-02T08:51:44;2.85;;;2.65;;
33836;SDS011;20140;49.356;8.812;2022-08-02T08:54:11;2.87;;;2.30;;
33836;SDS011;20140;49.356;8.812;2022-08-02T08:56:41;3.42;;;2.42;;
33836;SDS011;20140;49.356;8.812;2022-08-02T08:59:07;4.15;;;2.38;;
33836;SDS011;20140;49.356;8.812;2022-08-02T09:01:33;2.67;;;2.33;;
33836;SDS011;20140;49.356;8.812;2022-08-02T09:03:59;2.60;;;2.40;;
33836;SDS011;20140;49.356;8.812;2022-08-02T09:06:25;3.15;;;2.60;;
33836;SDS011;20140;49.356;8.812;2022-08-02T09:08:51;2.63;;;2.42;;
33836;SDS011;20140;49.356;8.812;2022-08-02T09:11:18;3.20;;;2.50;;
33836;SDS011;20140;49.356;8.812;2022-08-02T09:13:48;2.60;;;2.40;;
33836;SDS011;20140;49.356;8.812;2022-08-02T09:18:59;2.80;;;2.60;;
33836;SDS011;20140;49.356;8.812;2022-08-02T09:21:41;2.65;;;2.45;;
33836;SDS011;20140;49.356;8.812;2022-08-02T09:24:20;2.50;;;2.10;;
33836;SDS011;20140;49.356;8.812;2022-08-02T09:26:47;3.72;;;2.45;;
33836;SDS011;20140;49.356;8.812;2022-08-02T09:29:14;2.97;;;2.60;;
33836;SDS011;20140;49.356;8.812;2022-08-02T09:31:41;2.45;;;2.25;;
33836;SDS011;20140;49.356;8.812;2022-08-02T09:34:07;2.30;;;2.10;;
33836;SDS011;20140;49.356;8.812;2022-08-02T09:36:37;2.22;;;2.03;;
33836;SDS011;20140;49.356;8.812;2022-08-02T09:39:04;2.60;;;2.40;;
33836;SDS011;20140;49.356;8.812;2022-08-02T09:41:31;2.30;;;2.10;;
33836;SDS011;20140;49.356;8.812;2022-08-02T09:43:59;2.80;;;2.60;;
33836;SDS011;20140;49.356;8.812;2022-08-02T09:46:26;2.10;;;1.90;;
33836;SDS011;20140;49.356;8.812;2022-08-02T09:53:48;2.47;;;2.22;;
33836;SDS011;20140;49.356;8.812;2022-08-02T09:56:18;3.08;;;2.85;;
33836;SDS011;20140;49.356;8.812;2022-08-02T09:58:44;2.33;;;2.13;;
33836;SDS011;20140;49.356;8.812;2022-08-02T10:01:10;2.25;;;2.15;;
33836;SDS011;20140;49.356;8.812;2022-08-02T10:03:35;3.20;;;2.40;;
33836;SDS011;20140;49.356;8.812;2022-08-02T10:06:01;2.42;;;2.15;;
33836;SDS011;20140;49.356;8.812;2022-08-02T10:08:28;2.65;;;2.45;;
33836;SDS011;20140;49.356;8.812;2022-08-02T10:10:55;2.60;;;2.40;;
33836;SDS011;20140;49.356;8.812;2022-08-02T10:13:29;2.67;;;2.47;;
33836;SDS011;20140;49.356;8.812;2022-08-02T10:15:56;2.00;;;1.90;;
33836;SDS011;20140;49.356;8.812;2022-08-02T10:18:22;3.70;;;2.30;;
33836;SDS011;20140;49.356;8.812;2022-08-02T10:20:49;3.00;;;2.60;;
33836;SDS011;20140;49.356;8.812;2022-08-02T10:23:15;2.85;;;2.10;;
33836;SDS011;20140;49.356;8.812;2022-08-02T10:25:43;3.45;;;2.40;;
33836;SDS011;20140;49.356;8.812;2022-08-02T10:28:11;2.33;;;2.13;;
33836;SDS011;20140;49.356;8.812;2022-08-02T10:30:40;2.55;;;2.13;;
33836;SDS011;20140;49.356;8.812;2022-08-02T10:33:08;2.38;;;2.20;;
33836;SDS011;20140;49.356;8.812;2022-08-02T10:35:36;3.13;;;2.85;;
33836;SDS011;20140;49.356;8.812;2022-08-02T10:38:08;2.25;;;2.10;;
33836;SDS011;20140;49.356;8.812;2022-08-02T10:40:42;4.38;;;2.30;;
33836;SDS011;20140;49.356;8.812;2022-08-02T10:43:38;2.60;;;2.40;;
33836;SDS011;20140;49.356;8.812;2022-08-02T10:51:56;2.55;;;2.35;;
33836;SDS011;20140;49.356;8.812;2022-08-02T10:54:26;2.78;;;2.58;;
33836;SDS011;20140;49.356;8.812;2022-08-02T10:56:53;2.60;;;2.40;;
33836;SDS011;20140;49.356;8.812;2022-08-02T11:01:53;3.13;;;2.60;;
33836;SDS011;20140;49.356;8.812;2022-08-02T11:07:14;3.67;;;3.00;;
33836;SDS011;20140;49.356;8.812;2022-08-02T11:09:41;3.03;;;2.83;;
33836;SDS011;20140;49.356;8.812;2022-08-02T11:12:09;3.22;;;2.60;;
33836;SDS011;20140;49.356;8.812;2022-08-02T11:14:37;2.70;;;2.50;;
33836;SDS011;20140;49.356;8.812;2022-08-02T11:17:05;3.85;;;2.63;;
33836;SDS011;20140;49.356;8.812;2022-08-02T11:22:32;4.07;;;2.90;;
33836;SDS011;20140;49.356;8.812;2022-08-02T11:25:07;3.30;;;3.00;;
33836;SDS011;20140;49.356;8.812;2022-08-02T11:27:57;3.65;;;3.42;;
33836;SDS011;20140;49.356;8.812;2022-08-02T11:30:24;4.38;;;3.97;;
33836;SDS011;20140;49.356;8.812;2022-08-02T11:32:54;4.68;;;3.38;;
33836;SDS011;20140;49.356;8.812;2022-08-02T11:35:21;3.78;;;3.42;;
33836;SDS011;20140;49.356;8.812;2022-08-02T11:37:47;4.05;;;3.75;;
33836;SDS011;20140;49.356;8.812;2022-08-02T11:40:14;3.83;;;3.20;;
33836;SDS011;20140;49.356;8.812;2022-08-02T11:42:42;3.90;;;3.35;;
33836;SDS011;20140;49.356;8.812;2022-08-02T11:45:09;4.60;;;4.20;;
33836;SDS011;20140;49.356;8.812;2022-08-02T11:47:46;3.67;;;3.38;;
33836;SDS011;20140;49.356;8.812;2022-08-02T11:50:13;4.03;;;3.20;;
33836;SDS011;20140;49.356;8.812;2022-08-02T11:52:39;4.22;;;3.83;;
33836;SDS011;20140;49.356;8.812;2022-08-02T11:55:05;3.20;;;2.90;;
33836;SDS011;20140;49.356;8.812;2022-08-02T11:57:32;3.38;;;3.08;;
33836;SDS011;20140;49.356;8.812;2022-08-02T11:59:58;3.13;;;2.92;;
33836;SDS011;20140;49.356;8.812;2022-08-02T12:02:24;3.43;;;2.83;;
33836;SDS011;20140;49.356;8.812;2022-08-02T12:04:58;4.05;;;3.10;;
33836;SDS011;20140;49.356;8.812;2022-08-02T12:07:29;2.97;;;2.67;;
33836;SDS011;20140;49.356;8.812;2022-08-02T12:10:00;3.00;;;2.70;;
33836;SDS011;20140;49.356;8.812;2022-08-02T12:12:30;2.92;;;2.72;;
33836;SDS011;20140;49.356;8.812;2022-08-02T12:14:55;3.53;;;3.23;;
33836;SDS011;20140;49.356;8.812;2022-08-02T12:17:22;2.60;;;2.40;;
33836;SDS011;20140;49.356;8.812;2022-08-02T12:20:07;4.28;;;2.78;;
33836;SDS011;20140;49.356;8.812;2022-08-02T12:22:34;2.60;;;2.40;;
33836;SDS011;20140;49.356;8.812;2022-08-02T12:25:14;3.00;;;2.80;;
33836;SDS011;20140;49.356;8.812;2022-08-02T12:27:44;2.80;;;2.60;;
33836;SDS011;20140;49.356;8.812;2022-08-02T12:30:14;2.77;;;2.57;;
33836;SDS011;20140;49.356;8.812;2022-08-02T12:32:42;4.22;;;2.45;;
33836;SDS011;20140;49.356;8.812;2022-08-02T12:35:13;2.92;;;2.67;;
33836;SDS011;20140;49.356;8.812;2022-08-02T12:37:44;2.90;;;2.70;;
33836;SDS011;20140;49.356;8.812;2022-08-02T12:40:18;4.30;;;3.13;;
33836;SDS011;20140;49.356;8.812;2022-08-02T12:42:54;2.95;;;2.72;;
33836;SDS011;20140;49.356;8.812;2022-08-02T12:45:22;3.10;;;2.70;;
33836;SDS011;20140;49.356;8.812;2022-08-02T12:47:52;2.80;;;2.60;;
33836;SDS011;20140;49.356;8.812;2022-08-02T12:52:47;2.72;;;2.53;;
33836;SDS011;20140;49.356;8.812;2022-08-02T12:55:23;3.43;;;2.33;;
33836;SDS011;20140;49.356;8.812;2022-08-02T12:57:53;2.22;;;2.03;;
33836;SDS011;20140;49.356;8.812;2022-08-02T13:00:30;2.72;;;2.33;;
33836;SDS011;20140;49.356;8.812;2022-08-02T13:02:57;2.67;;;2.33;;
33836;SDS011;20140;49.356;8.812;2022-08-02T13:05:23;1.90;;;1.80;;
33836;SDS011;20140;49.356;8.812;2022-08-02T13:07:52;2.58;;;2.38;;
33836;SDS011;20140;49.356;8.812;2022-08-02T13:10:18;2.58;;;2.38;;
33836;SDS011;20140;49.356;8.812;2022-08-02T13:12:45;2.65;;;2.33;;
33836;SDS011;20140;49.356;8.812;2022-08-02T13:15:11;2.63;;;2.50;;
33836;SDS011;20140;49.356;8.812;2022-08-02T13:17:37;2.50;;;2.30;;
33836;SDS011;20140;49.356;8.812;2022-08-02T13:20:05;2.67;;;2.47;;
33836;SDS011;20140;49.356;8.812;2022-08-02T13:22:31;2.60;;;2.40;;
33836;SDS011;20140;49.356;8.812;2022-08-02T13:24:57;2.70;;;2.10;;
33836;SDS011;20140;49.356;8.812;2022-08-02T13:27:23;2.23;;;2.03;;
33836;SDS011;20140;49.356;8.812;2022-08-02T13:29:50;4.25;;;2.30;;
33836;SDS011;20140;49.356;8.812;2022-08-02T13:32:16;2.35;;;2.15;;
33836;SDS011;20140;49.356;8.812;2022-08-02T13:34:41;2.22;;;2.00;;
33836;SDS011;20140;49.356;8.812;2022-08-02T13:37:07;2.30;;;2.10;;
33836;SDS011;20140;49.356;8.812;2022-08-02T13:39:32;2.30;;;2.00;;
33836;SDS011;20140;49.356;8.812;2022-08-02T13:41:58;2.22;;;2.10;;
33836;SDS011;20140;49.356;8.812;2022-08-02T13:44:23;1.73;;;1.63;;
33836;SDS011;20140;49.356;8.812;2022-08-02T13:46:49;2.00;;;1.80;;
33836;SDS011;20140;49.356;8.812;2022-08-02T13:49:15;2.50;;;2.30;;
33836;SDS011;20140;49.356;8.812;2022-08-02T13:51:40;2.15;;;1.95;;
33836;SDS011;20140;49.356;8.812;2022-08-02T13:54:06;2.33;;;2.23;;
33836;SDS011;20140;49.356;8.812;2022-08-02T13:56:32;2.33;;;1.85;;
33836;SDS011;20140;49.356;8.812;2022-08-02T13:58:57;2.20;;;2.00;;
33836;SDS011;20140;49.356;8.812;2022-08-02T14:01:23;2.17;;;2.07;;
33836;SDS011;20140;49.356;8.812;2022-08-02T14:03:52;3.28;;;2.00;;
33836;SDS011;20140;49.356;8.812;2022-08-02T14:06:20;3.70;;;1.98;;
33836;SDS011;20140;49.356;8.812;2022-08-02T14:08:47;2.17;;;2.03;;
33836;SDS011;20140;49.356;8.812;2022-08-02T14:11:13;1.77;;;1.67;;
33836;SDS011;20140;49.356;8.812;2022-08-02T14:13:38;2.00;;;1.90;;
33836;SDS011;20140;49.356;8.812;2022-08-02T14:16:04;1.97;;;1.87;;
33836;SDS011;20140;49.356;8.812;2022-08-02T14:18:29;4.03;;;2.05;;
33836;SDS011;20140;49.356;8.812;2022-08-02T14:20:55;2.63;;;1.95;;
33836;SDS011;20140;49.356;8.812;2022-08-02T14:23:21;2.42;;;2.22;;
33836;SDS011;20140;49.356;8.812;2022-08-02T14:25:46;2.80;;;1.90;;
33836;SDS011;20140;49.356;8.812;2022-08-02T14:28:12;2.20;;;1.83;;
33836;SDS011;20140;49.356;8.812;2022-08-02T14:30:37;1.95;;;1.85;;
33836;SDS011;20140;49.356;8.812;2022-08-02T14:33:03;1.97;;;1.83;;
33836;SDS011;20140;49.356;8.812;2022-08-02T14:35:29;1.97;;;1.87;;
33836;SDS011;20140;49.356;8.812;2022-08-02T14:37:55;2.20;;;2.00;;
33836;SDS011;20140;49.356;8.812;2022-08-02T14:40:21;2.42;;;1.92;;
33836;SDS011;20140;49.356;8.812;2022-08-02T14:42:47;2.47;;;1.55;;
33836;SDS011;20140;49.356;8.812;2022-08-02T14:45:15;2.17;;;2.00;;
33836;SDS011;20140;49.356;8.812;2022-08-02T14:47:42;2.50;;;2.10;;
33836;SDS011;20140;49.356;8.812;2022-08-02T14:50:08;2.00;;;1.60;;
33836;SDS011;20140;49.356;8.812;2022-08-02T14:52:34;2.05;;;1.95;;
33836;SDS011;20140;49.356;8.812;2022-08-02T14:55:01;2.20;;;1.77;;
33836;SDS011;20140;49.356;8.812;2022-08-02T14:57:28;1.70;;;1.60;;
33836;SDS011;20140;49.356;8.812;2022-08-02T14:59:53;2.45;;;1.65;;
33836;SDS011;20140;49.356;8.812;2022-08-02T15:02:19;3.63;;;1.85;;
33836;SDS011;20140;49.356;8.812;2022-08-02T15:04:45;3.20;;;2.10;;
33836;SDS011;20140;49.356;8.812;2022-08-02T15:07:11;5.40;;;2.17;;
33836;SDS011;20140;49.356;8.812;2022-08-02T15:09:37;2.28;;;1.90;;
33836;SDS011;20140;49.356;8.812;2022-08-02T15:12:02;2.08;;;1.55;;
33836;SDS011;20140;49.356;8.812;2022-08-02T15:14:28;2.13;;;2.00;;
33836;SDS011;20140;49.356;8.812;2022-08-02T15:16:54;2.50;;;1.97;;
33836;SDS011;20140;49.356;8.812;2022-08-02T15:19:19;2.28;;;1.80;;
33836;SDS011;20140;49.356;8.812;2022-08-02T15:21:45;1.97;;;1.87;;
33836;SDS011;20140;49.356;8.812;2022-08-02T15:24:10;2.20;;;2.00;;
33836;SDS011;20140;49.356;8.812;2022-08-02T15:26:36;2.90;;;2.10;;